ADDS METAR Data INFO
IDs: Format: Raw Decoded Include TAF

Data at: 0247 UTC 21 Oct 2017

KSGT 210156Z AUTO 10004KT 10SM CLR 18/14 A3008 RMK AO2 SLP185 T01830139
KSGT 210056Z AUTO 11005KT 10SM CLR 19/14 A3007 RMK AO2 SLP184 T01890139
KSGT 202356Z AUTO 17004KT 10SM CLR 22/14 A3008 RMK AO2 SLP186 T02170139 10250 20211 58007
KSGT 202256Z AUTO 15004KT 9SM CLR 22/14 A3009 RMK AO2 SLP189 T02220139
KSGT 202156Z AUTO 14009KT 10SM CLR 24/13 A3010 RMK AO2 SLP192 T02390133
KSGT 202056Z AUTO 14005KT 10SM CLR 24/14 A3010 RMK AO2 SLP193 T02440139 56022
KSGT 201956Z AUTO 13006KT 10SM CLR 25/14 A3012 RMK AO2 SLP199 T02500139
KSGT 201856Z AUTO 12006KT 10SM CLR 24/14 A3014 RMK AO2 SLP204 T02440144
KSGT 201756Z AUTO 14008KT 10SM CLR 24/14 A3017 RMK AO2 PRESFR SLP215 T02390144 10239 20122 58020
KSGT 201656Z AUTO 16010KT 10SM CLR 22/14 A3020 RMK AO2 SLP225 T02220144
KSGT 201556Z AUTO 17011KT 10SM CLR 22/14 A3021 RMK AO2 SLP231 T02220139
KSGT 201456Z AUTO 16010KT 10SM CLR 21/14 A3023 RMK AO2 SLP235 T02060144 50006
KSGT 201356Z AUTO 15006KT 10SM CLR 16/13 A3023 RMK AO2 SLP236 T01610133
KSGT 201256Z AUTO 13005KT 10SM CLR 13/12 A3021 RMK AO2 SLP230 T01330117
KSGT 201156Z AUTO 12004KT 10SM CLR 13/11 A3021 RMK AO2 SLP230 T01280111 10150 20122 53005
KSGT 201056Z AUTO 12004KT 10SM CLR 13/11 A3020 RMK AO2 SLP226 T01280111
KSGT 200956Z AUTO 11004KT 10SM CLR 13/11 A3019 RMK AO2 SLP223 T01280106
KSGT 200856Z AUTO 12005KT 10SM CLR 13/11 A3019 RMK AO2 SLP223 T01330106 51001
KSGT 200756Z AUTO 14006KT 10SM CLR 14/11 A3019 RMK AO2 SLP223 T01390106
KSGT 200656Z AUTO 14005KT 10SM CLR 14/11 A3020 RMK AO2 SLP225 T01390106
KSGT 200556Z AUTO 14003KT 10SM CLR 15/11 A3019 RMK AO2 SLP223 T01500111 10206 20117 402720083 58001
KSGT 200456Z AUTO 13005KT 9SM CLR 15/11 A3019 RMK AO2 SLP223 T01500106
KSGT 200356Z AUTO 11004KT 10SM CLR 16/11 A3020 RMK AO2 SLP226 T01560111
KSGT 200256Z AUTO 12005KT 10SM CLR 17/12 A3019 RMK AO2 SLP225 T01720117 53006
KSGT 200156Z AUTO 09005KT 8SM CLR 17/12 A3019 RMK AO2 SLP222 T01720117
KSGT 200056Z AUTO 14005KT 7SM CLR 19/12 A3018 RMK AO2 SLP221 T01890122
KSGT 192356Z AUTO 13007KT 10SM CLR 21/12 A3018 RMK AO2 SLP219 T02060117 10272 20206 53002
KSGT 192256Z AUTO 10006KT 10SM CLR 23/12 A3017 RMK AO2 SLP216 T02330117
KSGT 192156Z AUTO 14005KT 10SM CLR 26/10 A3017 RMK AO2 SLP214 T02610100
KSGT 192056Z AUTO 14004KT 10SM CLR 27/11 A3017 RMK AO2 SLP216 T02670106 56021
KSGT 191956Z AUTO 09006KT 10SM CLR 26/11 A3018 RMK AO2 SLP217 T02610111
KSGT 191856Z AUTO VRB03KT 10SM CLR 26/12 A3020 RMK AO2 SLP225 T02610117
KSGT 191756Z AUTO 00000KT 10SM CLR 25/11 A3023 RMK AO2 SLP236 60000 T02500111 10250 20083 58011
KSGT 191724Z AUTO 00000KT 7SM CLR 24/11 A3025 RMK AO2
KSGT 191717Z AUTO VRB03KT 2SM HZ CLR 24/12 A3025 RMK AO2 VIS 1/4V5
KSGT 191714Z AUTO 16004KT 1SM HZ CLR 24/12 A3025 RMK AO2 RVRNO
KSGT 191656Z AUTO VRB03KT 10SM CLR 23/12 A3026 RMK AO2 SLP246 T02280117
KSGT 191556Z AUTO 20006KT 10SM CLR 21/12 A3027 RMK AO2 SLP249 T02110117
KSGT 191456Z AUTO 18007KT 10SM CLR 18/11 A3026 RMK AO2 SLP248 60000 T01780106 51016